sensor_id;sensor_type;location;lat;lon;timestamp;P1;durP1;ratioP1;P2;durP2;ratioP2
30299;SDS011;17110;52.602;12.998;2023-07-31T00:02:18;5.18;;;3.00;;
30299;SDS011;17110;52.602;12.998;2023-07-31T00:04:44;4.80;;;2.88;;
30299;SDS011;17110;52.602;12.998;2023-07-31T00:07:10;7.60;;;3.50;;
30299;SDS011;17110;52.602;12.998;2023-07-31T00:09:36;3.85;;;2.60;;
30299;SDS011;17110;52.602;12.998;2023-07-31T00:12:02;6.15;;;2.88;;
30299;SDS011;17110;52.602;12.998;2023-07-31T00:14:28;6.57;;;3.10;;
30299;SDS011;17110;52.602;12.998;2023-07-31T00:16:55;6.03;;;2.85;;
30299;SDS011;17110;52.602;12.998;2023-07-31T00:19:21;5.28;;;3.22;;
30299;SDS011;17110;52.602;12.998;2023-07-31T00:21:46;6.85;;;2.90;;
30299;SDS011;17110;52.602;12.998;2023-07-31T00:24:12;5.22;;;3.33;;
30299;SDS011;17110;52.602;12.998;2023-07-31T00:26:38;5.78;;;2.70;;
30299;SDS011;17110;52.602;12.998;2023-07-31T00:29:03;5.32;;;2.85;;
30299;SDS011;17110;52.602;12.998;2023-07-31T00:31:29;8.10;;;3.45;;
30299;SDS011;17110;52.602;12.998;2023-07-31T00:33:56;6.35;;;3.00;;
30299;SDS011;17110;52.602;12.998;2023-07-31T00:36:22;6.30;;;2.97;;
30299;SDS011;17110;52.602;12.998;2023-07-31T00:38:47;3.60;;;2.70;;
30299;SDS011;17110;52.602;12.998;2023-07-31T00:41:13;6.03;;;3.10;;
30299;SDS011;17110;52.602;12.998;2023-07-31T00:43:39;6.57;;;2.90;;
30299;SDS011;17110;52.602;12.998;2023-07-31T00:46:06;5.95;;;2.42;;
30299;SDS011;17110;52.602;12.998;2023-07-31T00:48:32;6.10;;;2.88;;
30299;SDS011;17110;52.602;12.998;2023-07-31T00:50:59;3.70;;;3.17;;
30299;SDS011;17110;52.602;12.998;2023-07-31T00:53:25;7.25;;;3.35;;
30299;SDS011;17110;52.602;12.998;2023-07-31T00:55:54;5.13;;;3.00;;
30299;SDS011;17110;52.602;12.998;2023-07-31T00:58:19;5.28;;;2.70;;
30299;SDS011;17110;52.602;12.998;2023-07-31T01:00:45;5.30;;;2.67;;
30299;SDS011;17110;52.602;12.998;2023-07-31T01:03:11;8.38;;;3.13;;
30299;SDS011;17110;52.602;12.998;2023-07-31T01:05:39;4.60;;;2.58;;
30299;SDS011;17110;52.602;12.998;2023-07-31T01:08:18;6.15;;;2.90;;
30299;SDS011;17110;52.602;12.998;2023-07-31T01:10:54;6.25;;;2.88;;
30299;SDS011;17110;52.602;12.998;2023-07-31T01:13:24;7.13;;;3.22;;
30299;SDS011;17110;52.602;12.998;2023-07-31T01:15:50;6.28;;;3.00;;
30299;SDS011;17110;52.602;12.998;2023-07-31T01:18:16;7.20;;;3.38;;
30299;SDS011;17110;52.602;12.998;2023-07-31T01:20:42;6.07;;;3.17;;
30299;SDS011;17110;52.602;12.998;2023-07-31T01:26:18;6.70;;;3.28;;
30299;SDS011;17110;52.602;12.998;2023-07-31T01:28:47;5.90;;;3.05;;
30299;SDS011;17110;52.602;12.998;2023-07-31T01:31:20;7.05;;;3.88;;
30299;SDS011;17110;52.602;12.998;2023-07-31T01:33:48;9.15;;;3.80;;
30299;SDS011;17110;52.602;12.998;2023-07-31T01:36:14;8.32;;;3.40;;
30299;SDS011;17110;52.602;12.998;2023-07-31T01:38:40;4.10;;;3.30;;
30299;SDS011;17110;52.602;12.998;2023-07-31T01:41:05;5.22;;;3.33;;
30299;SDS011;17110;52.602;12.998;2023-07-31T01:43:33;4.78;;;3.10;;
30299;SDS011;17110;52.602;12.998;2023-07-31T01:45:58;4.68;;;3.60;;
30299;SDS011;17110;52.602;12.998;2023-07-31T01:48:24;5.63;;;3.72;;
30299;SDS011;17110;52.602;12.998;2023-07-31T01:50:50;6.05;;;3.40;;
30299;SDS011;17110;52.602;12.998;2023-07-31T01:53:15;4.78;;;3.60;;
30299;SDS011;17110;52.602;12.998;2023-07-31T01:55:41;5.18;;;3.65;;
30299;SDS011;17110;52.602;12.998;2023-07-31T01:58:07;6.72;;;3.78;;
30299;SDS011;17110;52.602;12.998;2023-07-31T02:00:34;4.57;;;3.28;;
30299;SDS011;17110;52.602;12.998;2023-07-31T02:03:00;5.90;;;3.60;;
30299;SDS011;17110;52.602;12.998;2023-07-31T02:05:26;5.32;;;3.75;;
30299;SDS011;17110;52.602;12.998;2023-07-31T02:07:51;5.35;;;3.80;;
30299;SDS011;17110;52.602;12.998;2023-07-31T02:10:17;6.32;;;3.50;;
30299;SDS011;17110;52.602;12.998;2023-07-31T02:12:43;5.38;;;3.80;;
30299;SDS011;17110;52.602;12.998;2023-07-31T02:15:09;6.15;;;3.70;;
30299;SDS011;17110;52.602;12.998;2023-07-31T02:17:36;7.35;;;3.92;;
30299;SDS011;17110;52.602;12.998;2023-07-31T02:20:02;5.10;;;3.50;;
30299;SDS011;17110;52.602;12.998;2023-07-31T02:22:28;3.92;;;3.53;;
30299;SDS011;17110;52.602;12.998;2023-07-31T02:24:54;6.90;;;4.10;;
30299;SDS011;17110;52.602;12.998;2023-07-31T02:27:21;7.20;;;4.10;;
30299;SDS011;17110;52.602;12.998;2023-07-31T02:29:47;5.45;;;3.95;;
30299;SDS011;17110;52.602;12.998;2023-07-31T02:32:12;5.40;;;3.55;;
30299;SDS011;17110;52.602;12.998;2023-07-31T02:34:39;5.93;;;3.72;;
30299;SDS011;17110;52.602;12.998;2023-07-31T02:37:05;6.15;;;4.10;;
30299;SDS011;17110;52.602;12.998;2023-07-31T02:39:31;4.43;;;3.92;;
30299;SDS011;17110;52.602;12.998;2023-07-31T02:41:56;6.15;;;4.22;;
30299;SDS011;17110;52.602;12.998;2023-07-31T02:44:22;13.80;;;4.57;;
30299;SDS011;17110;52.602;12.998;2023-07-31T02:46:48;5.00;;;3.90;;
30299;SDS011;17110;52.602;12.998;2023-07-31T02:49:13;6.18;;;3.42;;
30299;SDS011;17110;52.602;12.998;2023-07-31T02:51:40;4.47;;;3.30;;
30299;SDS011;17110;52.602;12.998;2023-07-31T02:54:06;7.55;;;3.58;;
30299;SDS011;17110;52.602;12.998;2023-07-31T02:56:32;5.82;;;3.42;;
30299;SDS011;17110;52.602;12.998;2023-07-31T02:58:57;4.60;;;3.20;;
30299;SDS011;17110;52.602;12.998;2023-07-31T03:01:23;5.45;;;4.10;;
30299;SDS011;17110;52.602;12.998;2023-07-31T03:03:49;3.50;;;3.20;;
30299;SDS011;17110;52.602;12.998;2023-07-31T03:06:14;6.78;;;3.47;;
30299;SDS011;17110;52.602;12.998;2023-07-31T03:08:42;5.72;;;3.30;;
30299;SDS011;17110;52.602;12.998;2023-07-31T03:11:08;7.03;;;3.33;;
30299;SDS011;17110;52.602;12.998;2023-07-31T03:13:33;5.63;;;3.70;;
30299;SDS011;17110;52.602;12.998;2023-07-31T03:15:59;5.00;;;3.50;;
30299;SDS011;17110;52.602;12.998;2023-07-31T03:18:25;6.95;;;3.20;;
30299;SDS011;17110;52.602;12.998;2023-07-31T03:20:50;4.78;;;3.40;;
30299;SDS011;17110;52.602;12.998;2023-07-31T03:23:16;6.18;;;3.65;;
30299;SDS011;17110;52.602;12.998;2023-07-31T03:25:52;4.57;;;3.53;;
30299;SDS011;17110;52.602;12.998;2023-07-31T03:28:21;5.15;;;3.60;;
30299;SDS011;17110;52.602;12.998;2023-07-31T03:30:46;5.47;;;3.65;;
30299;SDS011;17110;52.602;12.998;2023-07-31T03:33:13;4.95;;;3.42;;
30299;SDS011;17110;52.602;12.998;2023-07-31T03:35:39;6.03;;;3.80;;
30299;SDS011;17110;52.602;12.998;2023-07-31T03:38:05;4.97;;;4.05;;
30299;SDS011;17110;52.602;12.998;2023-07-31T03:40:30;4.82;;;3.58;;
30299;SDS011;17110;52.602;12.998;2023-07-31T03:42:57;7.97;;;3.38;;
30299;SDS011;17110;52.602;12.998;2023-07-31T03:45:23;5.88;;;3.80;;
30299;SDS011;17110;52.602;12.998;2023-07-31T03:47:48;5.90;;;3.80;;
30299;SDS011;17110;52.602;12.998;2023-07-31T03:50:14;4.88;;;3.72;;
30299;SDS011;17110;52.602;12.998;2023-07-31T03:52:40;7.03;;;3.40;;
30299;SDS011;17110;52.602;12.998;2023-07-31T03:55:06;5.88;;;4.07;;
30299;SDS011;17110;52.602;12.998;2023-07-31T03:57:32;6.85;;;4.22;;
30299;SDS011;17110;52.602;12.998;2023-07-31T03:59:59;7.20;;;4.88;;
30299;SDS011;17110;52.602;12.998;2023-07-31T04:02:25;7.78;;;4.80;;
30299;SDS011;17110;52.602;12.998;2023-07-31T04:04:50;5.68;;;4.70;;
30299;SDS011;17110;52.602;12.998;2023-07-31T04:07:16;6.43;;;5.13;;
30299;SDS011;17110;52.602;12.998;2023-07-31T04:09:42;6.10;;;4.70;;
30299;SDS011;17110;52.602;12.998;2023-07-31T04:12:07;7.22;;;4.88;;
30299;SDS011;17110;52.602;12.998;2023-07-31T04:14:33;5.60;;;4.63;;
30299;SDS011;17110;52.602;12.998;2023-07-31T04:17:00;7.80;;;4.90;;
30299;SDS011;17110;52.602;12.998;2023-07-31T04:19:26;8.82;;;5.40;;
30299;SDS011;17110;52.602;12.998;2023-07-31T04:21:51;6.88;;;5.47;;
30299;SDS011;17110;52.602;12.998;2023-07-31T04:24:17;6.47;;;4.82;;
30299;SDS011;17110;52.602;12.998;2023-07-31T04:26:43;5.43;;;4.78;;
30299;SDS011;17110;52.602;12.998;2023-07-31T04:29:08;10.57;;;5.28;;
30299;SDS011;17110;52.602;12.998;2023-07-31T04:31:34;9.77;;;5.28;;
30299;SDS011;17110;52.602;12.998;2023-07-31T04:34:01;9.07;;;5.60;;
30299;SDS011;17110;52.602;12.998;2023-07-31T04:36:26;8.60;;;5.32;;
30299;SDS011;17110;52.602;12.998;2023-07-31T04:38:52;6.57;;;5.05;;
30299;SDS011;17110;52.602;12.998;2023-07-31T04:41:18;8.45;;;5.50;;
30299;SDS011;17110;52.602;12.998;2023-07-31T04:43:43;7.55;;;5.68;;
30299;SDS011;17110;52.602;12.998;2023-07-31T04:46:09;7.85;;;5.28;;
30299;SDS011;17110;52.602;12.998;2023-07-31T04:48:34;9.65;;;6.03;;
30299;SDS011;17110;52.602;12.998;2023-07-31T04:51:01;8.70;;;5.60;;
30299;SDS011;17110;52.602;12.998;2023-07-31T04:53:27;10.35;;;6.13;;
30299;SDS011;17110;52.602;12.998;2023-07-31T04:55:53;6.63;;;5.18;;
30299;SDS011;17110;52.602;12.998;2023-07-31T04:58:18;7.30;;;5.50;;
30299;SDS011;17110;52.602;12.998;2023-07-31T05:00:44;7.78;;;5.60;;
30299;SDS011;17110;52.602;12.998;2023-07-31T05:03:10;11.27;;;6.38;;
30299;SDS011;17110;52.602;12.998;2023-07-31T05:05:35;6.82;;;5.72;;
30299;SDS011;17110;52.602;12.998;2023-07-31T05:08:03;8.15;;;5.43;;
30299;SDS011;17110;52.602;12.998;2023-07-31T05:10:28;8.10;;;5.32;;
30299;SDS011;17110;52.602;12.998;2023-07-31T05:12:54;7.20;;;5.68;;
30299;SDS011;17110;52.602;12.998;2023-07-31T05:15:20;9.23;;;6.22;;
30299;SDS011;17110;52.602;12.998;2023-07-31T05:17:45;6.40;;;5.20;;
30299;SDS011;17110;52.602;12.998;2023-07-31T05:20:11;11.68;;;5.60;;
30299;SDS011;17110;52.602;12.998;2023-07-31T05:22:37;6.97;;;5.15;;
30299;SDS011;17110;52.602;12.998;2023-07-31T05:25:04;10.00;;;5.32;;
30299;SDS011;17110;52.602;12.998;2023-07-31T05:27:30;7.38;;;5.28;;
30299;SDS011;17110;52.602;12.998;2023-07-31T05:29:57;8.90;;;5.40;;
30299;SDS011;17110;52.602;12.998;2023-07-31T05:32:22;8.20;;;5.10;;
30299;SDS011;17110;52.602;12.998;2023-07-31T05:34:50;10.02;;;5.65;;
30299;SDS011;17110;52.602;12.998;2023-07-31T05:37:16;8.73;;;5.78;;
30299;SDS011;17110;52.602;12.998;2023-07-31T05:39:41;10.55;;;5.18;;
30299;SDS011;17110;52.602;12.998;2023-07-31T05:42:08;6.80;;;4.65;;
30299;SDS011;17110;52.602;12.998;2023-07-31T05:44:34;9.95;;;4.80;;
30299;SDS011;17110;52.602;12.998;2023-07-31T05:47:00;8.23;;;5.35;;
30299;SDS011;17110;52.602;12.998;2023-07-31T05:49:26;9.40;;;5.28;;
30299;SDS011;17110;52.602;12.998;2023-07-31T05:51:51;8.85;;;5.07;;
30299;SDS011;17110;52.602;12.998;2023-07-31T05:54:17;10.95;;;4.68;;
30299;SDS011;17110;52.602;12.998;2023-07-31T05:56:42;7.18;;;4.50;;
30299;SDS011;17110;52.602;12.998;2023-07-31T05:59:10;8.10;;;4.55;;
30299;SDS011;17110;52.602;12.998;2023-07-31T06:01:37;8.25;;;4.22;;
30299;SDS011;17110;52.602;12.998;2023-07-31T06:04:03;10.60;;;5.25;;
30299;SDS011;17110;52.602;12.998;2023-07-31T06:06:28;5.95;;;3.85;;
30299;SDS011;17110;52.602;12.998;2023-07-31T06:08:54;9.43;;;4.57;;
30299;SDS011;17110;52.602;12.998;2023-07-31T06:11:20;6.50;;;4.10;;
30299;SDS011;17110;52.602;12.998;2023-07-31T06:13:46;6.70;;;4.05;;
30299;SDS011;17110;52.602;12.998;2023-07-31T06:16:13;9.63;;;4.15;;
30299;SDS011;17110;52.602;12.998;2023-07-31T06:18:39;7.45;;;4.10;;
30299;SDS011;17110;52.602;12.998;2023-07-31T06:21:05;6.15;;;4.28;;
30299;SDS011;17110;52.602;12.998;2023-07-31T06:23:31;7.95;;;4.32;;
30299;SDS011;17110;52.602;12.998;2023-07-31T06:25:56;7.90;;;3.70;;
30299;SDS011;17110;52.602;12.998;2023-07-31T06:28:23;6.07;;;4.22;;
30299;SDS011;17110;52.602;12.998;2023-07-31T06:30:52;6.32;;;4.25;;
30299;SDS011;17110;52.602;12.998;2023-07-31T06:33:19;6.78;;;3.80;;
30299;SDS011;17110;52.602;12.998;2023-07-31T06:35:45;6.07;;;3.80;;
30299;SDS011;17110;52.602;12.998;2023-07-31T06:38:10;5.65;;;4.00;;
30299;SDS011;17110;52.602;12.998;2023-07-31T06:40:36;4.63;;;3.70;;
30299;SDS011;17110;52.602;12.998;2023-07-31T06:43:02;6.45;;;3.97;;
30299;SDS011;17110;52.602;12.998;2023-07-31T06:45:27;7.07;;;3.90;;
30299;SDS011;17110;52.602;12.998;2023-07-31T06:47:53;6.82;;;3.78;;
30299;SDS011;17110;52.602;12.998;2023-07-31T06:50:20;7.72;;;3.85;;
30299;SDS011;17110;52.602;12.998;2023-07-31T06:52:46;8.15;;;4.50;;
30299;SDS011;17110;52.602;12.998;2023-07-31T06:55:18;6.85;;;3.50;;
30299;SDS011;17110;52.602;12.998;2023-07-31T06:57:44;5.72;;;3.50;;
30299;SDS011;17110;52.602;12.998;2023-07-31T07:00:10;4.68;;;3.30;;
30299;SDS011;17110;52.602;12.998;2023-07-31T07:02:36;4.32;;;3.42;;
30299;SDS011;17110;52.602;12.998;2023-07-31T07:05:02;6.18;;;3.20;;
30299;SDS011;17110;52.602;12.998;2023-07-31T07:07:30;5.45;;;3.78;;
30299;SDS011;17110;52.602;12.998;2023-07-31T07:09:55;6.82;;;3.72;;
30299;SDS011;17110;52.602;12.998;2023-07-31T07:12:21;5.53;;;3.72;;
30299;SDS011;17110;52.602;12.998;2023-07-31T07:14:46;8.50;;;3.50;;
30299;SDS011;17110;52.602;12.998;2023-07-31T07:17:12;7.78;;;3.65;;
30299;SDS011;17110;52.602;12.998;2023-07-31T07:19:40;6.95;;;3.35;;
30299;SDS011;17110;52.602;12.998;2023-07-31T07:22:06;4.65;;;3.50;;
30299;SDS011;17110;52.602;12.998;2023-07-31T07:24:33;4.65;;;3.10;;
30299;SDS011;17110;52.602;12.998;2023-07-31T07:26:58;6.75;;;3.80;;
30299;SDS011;17110;52.602;12.998;2023-07-31T07:29:24;4.72;;;3.47;;
30299;SDS011;17110;52.602;12.998;2023-07-31T07:31:50;7.68;;;3.75;;
30299;SDS011;17110;52.602;12.998;2023-07-31T07:34:15;7.78;;;4.03;;
30299;SDS011;17110;52.602;12.998;2023-07-31T07:36:41;6.13;;;3.85;;
30299;SDS011;17110;52.602;12.998;2023-07-31T07:39:08;6.55;;;4.55;;
30299;SDS011;17110;52.602;12.998;2023-07-31T07:41:35;7.00;;;4.03;;
30299;SDS011;17110;52.602;12.998;2023-07-31T07:44:01;5.78;;;4.13;;
30299;SDS011;17110;52.602;12.998;2023-07-31T07:46:27;5.03;;;3.65;;
30299;SDS011;17110;52.602;12.998;2023-07-31T07:48:52;8.18;;;4.28;;
30299;SDS011;17110;52.602;12.998;2023-07-31T07:51:18;5.25;;;3.45;;
30299;SDS011;17110;52.602;12.998;2023-07-31T07:53:45;4.50;;;3.85;;
30299;SDS011;17110;52.602;12.998;2023-07-31T07:56:10;5.40;;;3.80;;
30299;SDS011;17110;52.602;12.998;2023-07-31T07:58:37;5.78;;;3.55;;
30299;SDS011;17110;52.602;12.998;2023-07-31T08:01:03;6.55;;;4.40;;
30299;SDS011;17110;52.602;12.998;2023-07-31T08:03:29;4.95;;;3.42;;
30299;SDS011;17110;52.602;12.998;2023-07-31T08:05:57;5.22;;;3.47;;
30299;SDS011;17110;52.602;12.998;2023-07-31T08:08:23;5.68;;;3.70;;
30299;SDS011;17110;52.602;12.998;2023-07-31T08:10:48;10.52;;;3.63;;
30299;SDS011;17110;52.602;12.998;2023-07-31T08:13:14;4.13;;;3.45;;
30299;SDS011;17110;52.602;12.998;2023-07-31T08:15:42;4.47;;;4.03;;
30299;SDS011;17110;52.602;12.998;2023-07-31T08:18:07;5.15;;;3.60;;
30299;SDS011;17110;52.602;12.998;2023-07-31T08:20:33;6.05;;;3.45;;
30299;SDS011;17110;52.602;12.998;2023-07-31T08:22:59;3.78;;;3.47;;
30299;SDS011;17110;52.602;12.998;2023-07-31T08:25:25;6.25;;;4.15;;
30299;SDS011;17110;52.602;12.998;2023-07-31T08:27:50;3.55;;;3.25;;
30299;SDS011;17110;52.602;12.998;2023-07-31T08:30:16;4.78;;;3.47;;
30299;SDS011;17110;52.602;12.998;2023-07-31T08:32:43;5.72;;;3.83;;
30299;SDS011;17110;52.602;12.998;2023-07-31T08:35:08;4.15;;;3.47;;
30299;SDS011;17110;52.602;12.998;2023-07-31T08:37:34;4.63;;;4.03;;
30299;SDS011;17110;52.602;12.998;2023-07-31T08:40:00;6.22;;;3.20;;
30299;SDS011;17110;52.602;12.998;2023-07-31T08:42:25;5.07;;;3.10;;
30299;SDS011;17110;52.602;12.998;2023-07-31T08:44:51;5.32;;;2.78;;
30299;SDS011;17110;52.602;12.998;2023-07-31T08:47:19;5.07;;;3.05;;
30299;SDS011;17110;52.602;12.998;2023-07-31T08:49:46;4.80;;;2.63;;
30299;SDS011;17110;52.602;12.998;2023-07-31T08:52:16;4.47;;;2.60;;
30299;SDS011;17110;52.602;12.998;2023-07-31T08:54:41;4.13;;;1.90;;
30299;SDS011;17110;52.602;12.998;2023-07-31T08:57:07;4.13;;;2.35;;
30299;SDS011;17110;52.602;12.998;2023-07-31T08:59:35;4.60;;;2.53;;
30299;SDS011;17110;52.602;12.998;2023-07-31T09:02:02;3.03;;;2.17;;
30299;SDS011;17110;52.602;12.998;2023-07-31T09:04:30;3.10;;;1.88;;
30299;SDS011;17110;52.602;12.998;2023-07-31T09:07:00;1.88;;;1.77;;
30299;SDS011;17110;52.602;12.998;2023-07-31T09:09:26;4.88;;;2.40;;
30299;SDS011;17110;52.602;12.998;2023-07-31T09:11:52;4.45;;;2.10;;
30299;SDS011;17110;52.602;12.998;2023-07-31T09:14:18;2.53;;;2.33;;
30299;SDS011;17110;52.602;12.998;2023-07-31T09:16:53;2.78;;;2.13;;
30299;SDS011;17110;52.602;12.998;2023-07-31T09:19:26;2.30;;;2.10;;
30299;SDS011;17110;52.602;12.998;2023-07-31T09:21:54;2.08;;;1.67;;
30299;SDS011;17110;52.602;12.998;2023-07-31T09:24:28;1.83;;;1.63;;
30299;SDS011;17110;52.602;12.998;2023-07-31T09:26:54;3.83;;;1.90;;
30299;SDS011;17110;52.602;12.998;2023-07-31T09:29:21;4.53;;;2.45;;
30299;SDS011;17110;52.602;12.998;2023-07-31T09:31:47;3.00;;;2.58;;
30299;SDS011;17110;52.602;12.998;2023-07-31T09:34:12;5.10;;;2.15;;
30299;SDS011;17110;52.602;12.998;2023-07-31T09:36:41;2.30;;;2.10;;
30299;SDS011;17110;52.602;12.998;2023-07-31T09:39:08;2.35;;;1.85;;
30299;SDS011;17110;52.602;12.998;2023-07-31T09:41:37;4.32;;;2.10;;
30299;SDS011;17110;52.602;12.998;2023-07-31T09:44:03;1.92;;;1.83;;
30299;SDS011;17110;52.602;12.998;2023-07-31T09:46:29;5.32;;;2.33;;
30299;SDS011;17110;52.602;12.998;2023-07-31T09:49:03;2.47;;;2.20;;
30299;SDS011;17110;52.602;12.998;2023-07-31T09:51:30;3.25;;;1.65;;
30299;SDS011;17110;52.602;12.998;2023-07-31T09:53:55;2.67;;;2.10;;
30299;SDS011;17110;52.602;12.998;2023-07-31T09:56:21;3.22;;;2.20;;
30299;SDS011;17110;52.602;12.998;2023-07-31T09:58:49;2.40;;;2.20;;
30299;SDS011;17110;52.602;12.998;2023-07-31T10:01:16;3.83;;;2.47;;
30299;SDS011;17110;52.602;12.998;2023-07-31T10:03:42;3.38;;;3.00;;
30299;SDS011;17110;52.602;12.998;2023-07-31T10:06:10;4.95;;;2.78;;
30299;SDS011;17110;52.602;12.998;2023-07-31T10:08:37;3.90;;;2.90;;
30299;SDS011;17110;52.602;12.998;2023-07-31T10:11:03;3.13;;;2.70;;
30299;SDS011;17110;52.602;12.998;2023-07-31T10:13:30;4.35;;;3.50;;
30299;SDS011;17110;52.602;12.998;2023-07-31T10:15:59;3.63;;;3.33;;
30299;SDS011;17110;52.602;12.998;2023-07-31T10:18:25;5.53;;;3.40;;
30299;SDS011;17110;52.602;12.998;2023-07-31T10:20:51;5.03;;;3.50;;
30299;SDS011;17110;52.602;12.998;2023-07-31T10:23:19;5.18;;;4.13;;
30299;SDS011;17110;52.602;12.998;2023-07-31T10:25:45;4.20;;;3.63;;
30299;SDS011;17110;52.602;12.998;2023-07-31T10:28:11;7.90;;;3.88;;
30299;SDS011;17110;52.602;12.998;2023-07-31T10:30:38;6.43;;;4.15;;
30299;SDS011;17110;52.602;12.998;2023-07-31T10:33:06;6.82;;;4.53;;
30299;SDS011;17110;52.602;12.998;2023-07-31T10:35:32;8.52;;;4.88;;
30299;SDS011;17110;52.602;12.998;2023-07-31T10:38:07;7.15;;;4.22;;
30299;SDS011;17110;52.602;12.998;2023-07-31T10:40:34;9.13;;;4.35;;
30299;SDS011;17110;52.602;12.998;2023-07-31T10:43:00;7.45;;;4.40;;
30299;SDS011;17110;52.602;12.998;2023-07-31T10:45:27;11.80;;;5.32;;
30299;SDS011;17110;52.602;12.998;2023-07-31T10:47:59;10.60;;;4.75;;
30299;SDS011;17110;52.602;12.998;2023-07-31T10:50:28;7.03;;;4.22;;
30299;SDS011;17110;52.602;12.998;2023-07-31T10:52:55;7.55;;;5.10;;
30299;SDS011;17110;52.602;12.998;2023-07-31T10:55:25;9.35;;;5.10;;
30299;SDS011;17110;52.602;12.998;2023-07-31T10:57:53;6.90;;;4.50;;
30299;SDS011;17110;52.602;12.998;2023-07-31T11:00:20;6.57;;;4.60;;
30299;SDS011;17110;52.602;12.998;2023-07-31T11:02:57;7.15;;;4.35;;
30299;SDS011;17110;52.602;12.998;2023-07-31T11:05:44;9.00;;;4.95;;
30299;SDS011;17110;52.602;12.998;2023-07-31T11:08:14;6.97;;;4.72;;
30299;SDS011;17110;52.602;12.998;2023-07-31T11:10:42;7.57;;;4.80;;
30299;SDS011;17110;52.602;12.998;2023-07-31T11:13:08;6.43;;;4.60;;
30299;SDS011;17110;52.602;12.998;2023-07-31T11:15:33;6.93;;;4.95;;
30299;SDS011;17110;52.602;12.998;2023-07-31T11:17:59;8.13;;;4.82;;
30299;SDS011;17110;52.602;12.998;2023-07-31T11:20:25;8.52;;;4.90;;
30299;SDS011;17110;52.602;12.998;2023-07-31T11:22:53;7.40;;;4.82;;
30299;SDS011;17110;52.602;12.998;2023-07-31T11:25:18;9.45;;;4.68;;
30299;SDS011;17110;52.602;12.998;2023-07-31T11:27:44;8.25;;;4.90;;
30299;SDS011;17110;52.602;12.998;2023-07-31T11:30:10;10.25;;;4.72;;
30299;SDS011;17110;52.602;12.998;2023-07-31T11:32:36;8.13;;;5.03;;
30299;SDS011;17110;52.602;12.998;2023-07-31T11:35:03;4.88;;;4.28;;
30299;SDS011;17110;52.602;12.998;2023-07-31T11:37:38;5.65;;;4.40;;
30299;SDS011;17110;52.602;12.998;2023-07-31T11:40:06;7.95;;;4.90;;
30299;SDS011;17110;52.602;12.998;2023-07-31T11:42:32;7.07;;;5.15;;
30299;SDS011;17110;52.602;12.998;2023-07-31T11:45:01;5.35;;;4.50;;
30299;SDS011;17110;52.602;12.998;2023-07-31T11:47:27;5.57;;;4.97;;
30299;SDS011;17110;52.602;12.998;2023-07-31T11:49:53;7.63;;;5.35;;
30299;SDS011;17110;52.602;12.998;2023-07-31T11:52:19;6.53;;;5.00;;
30299;SDS011;17110;52.602;12.998;2023-07-31T11:54:45;7.15;;;4.68;;
30299;SDS011;17110;52.602;12.998;2023-07-31T11:57:13;6.85;;;4.60;;
30299;SDS011;17110;52.602;12.998;2023-07-31T11:59:39;7.30;;;4.30;;
30299;SDS011;17110;52.602;12.998;2023-07-31T12:02:05;7.05;;;4.38;;
30299;SDS011;17110;52.602;12.998;2023-07-31T12:04:31;5.75;;;4.20;;
30299;SDS011;17110;52.602;12.998;2023-07-31T12:06:56;10.65;;;4.82;;
30299;SDS011;17110;52.602;12.998;2023-07-31T12:09:25;6.13;;;4.32;;
30299;SDS011;17110;52.602;12.998;2023-07-31T12:11:51;8.00;;;4.38;;
30299;SDS011;17110;52.602;12.998;2023-07-31T12:14:21;7.95;;;4.65;;
30299;SDS011;17110;52.602;12.998;2023-07-31T12:16:52;5.70;;;4.65;;
30299;SDS011;17110;52.602;12.998;2023-07-31T12:19:19;10.23;;;4.53;;
30299;SDS011;17110;52.602;12.998;2023-07-31T12:21:45;7.25;;;4.53;;
30299;SDS011;17110;52.602;12.998;2023-07-31T12:24:10;7.10;;;4.60;;
30299;SDS011;17110;52.602;12.998;2023-07-31T12:26:36;5.82;;;4.72;;
30299;SDS011;17110;52.602;12.998;2023-07-31T12:29:02;6.05;;;4.20;;
30299;SDS011;17110;52.602;12.998;2023-07-31T12:31:33;9.45;;;4.78;;
30299;SDS011;17110;52.602;12.998;2023-07-31T12:33:59;5.53;;;4.70;;
30299;SDS011;17110;52.602;12.998;2023-07-31T12:36:25;6.15;;;4.53;;
30299;SDS011;17110;52.602;12.998;2023-07-31T12:38:51;9.77;;;4.60;;
30299;SDS011;17110;52.602;12.998;2023-07-31T12:41:17;5.95;;;4.60;;
30299;SDS011;17110;52.602;12.998;2023-07-31T12:43:43;10.18;;;4.93;;
30299;SDS011;17110;52.602;12.998;2023-07-31T12:46:10;6.95;;;4.15;;
30299;SDS011;17110;52.602;12.998;2023-07-31T12:48:37;5.45;;;4.43;;
30299;SDS011;17110;52.602;12.998;2023-07-31T12:51:03;6.93;;;4.70;;
30299;SDS011;17110;52.602;12.998;2023-07-31T12:53:29;6.25;;;4.32;;
30299;SDS011;17110;52.602;12.998;2023-07-31T12:55:55;5.13;;;4.22;;
30299;SDS011;17110;52.602;12.998;2023-07-31T12:58:21;8.45;;;4.70;;
30299;SDS011;17110;52.602;12.998;2023-07-31T13:00:46;8.07;;;4.85;;
30299;SDS011;17110;52.602;12.998;2023-07-31T13:03:12;8.82;;;4.63;;
30299;SDS011;17110;52.602;12.998;2023-07-31T13:05:42;11.45;;;5.15;;
30299;SDS011;17110;52.602;12.998;2023-07-31T13:08:07;11.90;;;4.43;;
30299;SDS011;17110;52.602;12.998;2023-07-31T13:10:33;7.18;;;4.15;;
30299;SDS011;17110;52.602;12.998;2023-07-31T13:12:59;5.80;;;3.97;;
30299;SDS011;17110;52.602;12.998;2023-07-31T13:15:24;6.85;;;4.72;;
30299;SDS011;17110;52.602;12.998;2023-07-31T13:17:50;6.72;;;3.80;;
30299;SDS011;17110;52.602;12.998;2023-07-31T13:20:16;7.57;;;4.03;;
30299;SDS011;17110;52.602;12.998;2023-07-31T13:22:43;5.00;;;3.45;;
30299;SDS011;17110;52.602;12.998;2023-07-31T13:25:08;8.35;;;4.03;;
30299;SDS011;17110;52.602;12.998;2023-07-31T13:27:34;7.13;;;3.20;;
30299;SDS011;17110;52.602;12.998;2023-07-31T13:30:00;5.03;;;3.25;;
30299;SDS011;17110;52.602;12.998;2023-07-31T13:32:26;4.55;;;3.25;;
30299;SDS011;17110;52.602;12.998;2023-07-31T13:34:52;8.70;;;4.43;;
30299;SDS011;17110;52.602;12.998;2023-07-31T13:37:18;6.70;;;3.75;;
30299;SDS011;17110;52.602;12.998;2023-07-31T13:39:45;4.10;;;3.33;;
30299;SDS011;17110;52.602;12.998;2023-07-31T13:42:11;4.90;;;3.00;;
30299;SDS011;17110;52.602;12.998;2023-07-31T13:44:37;5.25;;;3.33;;
30299;SDS011;17110;52.602;12.998;2023-07-31T13:47:03;5.55;;;3.42;;
30299;SDS011;17110;52.602;12.998;2023-07-31T13:49:29;4.60;;;3.20;;
30299;SDS011;17110;52.602;12.998;2023-07-31T13:51:55;5.25;;;3.13;;
30299;SDS011;17110;52.602;12.998;2023-07-31T13:54:22;4.63;;;3.58;;
30299;SDS011;17110;52.602;12.998;2023-07-31T13:56:49;10.55;;;3.95;;
30299;SDS011;17110;52.602;12.998;2023-07-31T13:59:15;5.57;;;4.32;;
30299;SDS011;17110;52.602;12.998;2023-07-31T14:01:41;4.78;;;3.70;;
30299;SDS011;17110;52.602;12.998;2023-07-31T14:04:06;6.50;;;3.45;;
30299;SDS011;17110;52.602;12.998;2023-07-31T14:06:32;5.20;;;3.55;;
30299;SDS011;17110;52.602;12.998;2023-07-31T14:08:58;7.63;;;3.92;;
30299;SDS011;17110;52.602;12.998;2023-07-31T14:11:23;4.88;;;3.42;;
30299;SDS011;17110;52.602;12.998;2023-07-31T14:13:51;7.22;;;4.40;;
30299;SDS011;17110;52.602;12.998;2023-07-31T14:16:16;5.32;;;3.80;;
30299;SDS011;17110;52.602;12.998;2023-07-31T14:18:42;6.95;;;3.70;;
30299;SDS011;17110;52.602;12.998;2023-07-31T14:21:08;5.75;;;3.70;;
30299;SDS011;17110;52.602;12.998;2023-07-31T14:23:34;6.50;;;3.80;;
30299;SDS011;17110;52.602;12.998;2023-07-31T14:25:59;5.93;;;3.72;;
30299;SDS011;17110;52.602;12.998;2023-07-31T14:28:25;6.85;;;3.95;;
30299;SDS011;17110;52.602;12.998;2023-07-31T14:30:52;4.68;;;3.90;;
30299;SDS011;17110;52.602;12.998;2023-07-31T14:33:18;6.72;;;4.07;;